Thunderstorms From: 26-05-2018 21:24 Until: 27-05-2018 15:00 warning for: Thunderstorms Level: Yellow info button

Although rather usual in this region, locally or potentially dangerous phenomena are expected. (such as local winds, summer thunderstorms, rising streams or high waves) Be aware and pay attention to the latest weather updates, especially if you carry out activities exposed to weather or close to a stream or shoreline. 


Meteo18 Weather Cam more information Meteo18 Weather Cam


warning for Thunderstorms more information blitzortung!


Rain radar more information rain snow radar


Visit our other weather sites:

Template documentation
and downloads

And another site



Weather Underground History page Text

Daily Summary for March 27, 2016 Units:  Metric    English   Both
« Previous Day
Next Day »
Daily Weekly Monthly Yearly Custom
  High: Low: Average:
Temperature: -17.8 °C -14.3 °C -12.7 °C
Dew Point: -17.8 °C -15 °C -14.1 °C
Humidity: Humidity % 66 % 84 %
Wind Speed: 0 km/h 0 km/h 10.5 km/h
Wind Gust: 0 km/h - -
Wind:- - SW
Pressure: 0 hPa 34029.3 hPa -
Precipitation: 147.32 mm    
Historical Graphs
 
 
Tabular Data for March 27, 2016
Time Temperature Dew Point Pressure Wind Wind Speed Wind Gust Humidity Rainfall Rate (Hourly)
-17.8 °C -17.8 °C 0 hPa Calm     Humidity % 0 mm
00:02 -11.8 °C -12.9 °C 34063.2 hPa Calm   7.7 km/h 87 % 0 mm
00:12 -11.7 °C -12.9 °C 34049.6 hPa WSW 2.6 km/h 7.7 km/h 86 % 0 mm
00:17 -11.7 °C -12.9 °C 34049.6 hPa Calm   5.1 km/h 86 % 0 mm
00:22 -11.7 °C -12.9 °C 34049.6 hPa Calm   5.1 km/h 87 % 0 mm
00:32 -11.5 °C -12.7 °C 34039.5 hPa Calm   7.7 km/h 87 % 0 mm
00:37 -11.3 °C -12.6 °C 34029.3 hPa WNW 5.1 km/h 7.7 km/h 86 % 0 mm
00:42 -11.2 °C -12.6 °C 34029.3 hPa Calm   7.7 km/h 85 % 0 mm
00:47 -11.1 °C -12.5 °C 34029.3 hPa SW 5.1 km/h 7.7 km/h 84 % 0 mm
00:57 -11.1 °C -12.5 °C 34029.3 hPa WSW 5.1 km/h 7.7 km/h 84 % 0 mm
01:02 -11.1 °C -12.5 °C 34029.3 hPa SW 2.6 km/h 12.9 km/h 84 % 0 mm
01:07 -11 °C -12.4 °C 34073.3 hPa SW 15.6 km/h 15.6 km/h 84 % 0 mm
01:12 -10.5 °C -12.3 °C 34086.9 hPa SW 10.3 km/h 20.8 km/h 81 % 0 mm
01:17 -10.2 °C -12.2 °C 34086.9 hPa SSE 2.6 km/h 33.6 km/h 79 % 0 mm
01:22 -10.3 °C -11.8 °C 34086.9 hPa South 18.2 km/h 36.2 km/h 83 % 0 mm
01:32 -11.2 °C -12.4 °C 34107.2 hPa South 2.6 km/h 36.2 km/h 86 % 12.7 mm
01:37 -11.6 °C -12.9 °C 34107.2 hPa Calm   36.2 km/h 86 % 33.02 mm
01:42 -11.8 °C -13 °C 34130.9 hPa North 7.7 km/h 36.2 km/h 87 % 33.02 mm
01:52 -12.1 °C -13 °C 34154.6 hPa SSW 7.7 km/h 36.2 km/h 90 % 38.1 mm
01:57 -12.3 °C -13.1 °C 34164.7 hPa SW 10.3 km/h 36.2 km/h 91 % 58.42 mm
03:02 -12.4 °C -13.2 °C 34178.3 hPa SW 15.6 km/h 36.2 km/h 91 % 58.42 mm
03:12 -12.6 °C -13.6 °C 34178.3 hPa WSW 18.2 km/h 33.6 km/h 89 % 63.5 mm
03:17 -12.7 °C -13.8 °C 34178.3 hPa SW 10.3 km/h 36.2 km/h 88 % 71.12 mm
03:22 -12.8 °C -13.9 °C 34188.4 hPa SW 12.9 km/h 36.2 km/h 88 % 71.12 mm
03:27 -12.9 °C -13.8 °C 34188.4 hPa SSW 10.3 km/h 28.5 km/h 89 % 50.8 mm
03:32 -12.9 °C -13.8 °C 34198.6 hPa NW 15.6 km/h 28.5 km/h 90 % 50.8 mm
03:37 -12.9 °C -13.9 °C 34198.6 hPa SW 10.3 km/h 28.5 km/h 89 % 38.1 mm
03:42 -13 °C -13.8 °C 34212.1 hPa WSW 5.1 km/h 23.3 km/h 90 % 38.1 mm
03:47 -13 °C -13.8 °C 34212.1 hPa South 7.7 km/h 25.9 km/h 90 % 33.02 mm
03:52 -13.1 °C -13.9 °C 34198.6 hPa SW 15.6 km/h 25.9 km/h 90 % 33.02 mm
03:57 -13.2 °C -13.9 °C 34212.1 hPa SSE 5.1 km/h 23.3 km/h 91 % 12.7 mm
04:02 -13.2 °C -13.8 °C 34222.3 hPa WSW 5.1 km/h 23.3 km/h 92 % 12.7 mm
04:12 -13.4 °C -14.2 °C 34246 hPa SW 2.6 km/h 23.3 km/h 90 % 12.7 mm
04:17 -13.5 °C -14.3 °C 34246 hPa WSW 7.7 km/h 23.3 km/h 91 % 12.7 mm
04:27 -13.6 °C -14.2 °C 34256.2 hPa SSW 15.6 km/h 20.8 km/h 92 % 20.32 mm
04:32 -13.6 °C -14.2 °C 34256.2 hPa SSW 18.2 km/h 20.8 km/h 92 % 20.32 mm
04:37 -13.6 °C -14.2 °C 34256.2 hPa SW 15.6 km/h 20.8 km/h 93 % 33.02 mm
04:42 -13.6 °C -14.3 °C 34256.2 hPa SW 5.1 km/h 38.8 km/h 92 % 33.02 mm
04:47 -13.7 °C -14.4 °C 34256.2 hPa SW 2.6 km/h 38.8 km/h 91 % 38.1 mm
04:52 -13.7 °C -14.6 °C 34256.2 hPa SSW 15.6 km/h 38.8 km/h 90 % 38.1 mm
05:02 -13.8 °C -14.5 °C 34269.7 hPa WSW 12.9 km/h 33.6 km/h 92 % 45.72 mm
05:07 -13.8 °C -14.5 °C 34269.7 hPa SSE 5.1 km/h 28.5 km/h 92 % 50.8 mm
05:12 -13.8 °C -14.5 °C 34269.7 hPa SW 5.1 km/h 28.5 km/h 92 % 50.8 mm
05:17 -13.9 °C -14.5 °C 34269.7 hPa West 2.6 km/h 18.2 km/h 93 % 45.72 mm
05:22 -13.9 °C -14.6 °C 34269.7 hPa WSW 5.1 km/h 18.2 km/h 93 % 45.72 mm
05:27 -13.9 °C -14.6 °C 34269.7 hPa SW 2.6 km/h 12.9 km/h 93 % 45.72 mm
05:32 -14 °C -14.7 °C 34269.7 hPa SW 7.7 km/h 12.9 km/h 92 % 45.72 mm
05:42 -14.1 °C -14.7 °C 34279.9 hPa SE 5.1 km/h 15.6 km/h 92 % 38.1 mm
05:47 -14.1 °C -14.7 °C 34279.9 hPa SW 7.7 km/h 15.6 km/h 92 % 33.02 mm
06:02 -14.1 °C -14.7 °C 34269.7 hPa SW 2.6 km/h 12.9 km/h 93 % 20.32 mm
06:12 -14.1 °C -14.7 °C 34293.4 hPa WSW 2.6 km/h 12.9 km/h 93 % 12.7 mm
06:17 -14.1 °C -14.6 °C 34279.9 hPa SW 2.6 km/h 15.6 km/h 94 % 12.7 mm
06:22 -14.1 °C -14.6 °C 34293.4 hPa SW 2.6 km/h 15.6 km/h 94 % 12.7 mm
06:32 -14.1 °C -14.6 °C 34293.4 hPa SW 5.1 km/h 15.6 km/h 94 % 7.62 mm
06:37 -14.1 °C -14.6 °C 34293.4 hPa SW 2.6 km/h 15.6 km/h 94 % 7.62 mm
06:42 -14.1 °C -14.6 °C 34303.6 hPa WSW 2.6 km/h 12.9 km/h 94 % 0 mm
06:52 -14.2 °C -14.7 °C 34303.6 hPa SW 7.7 km/h 12.9 km/h 94 % 0 mm
06:57 -14.2 °C -14.7 °C 34303.6 hPa West 7.7 km/h 15.6 km/h 94 % 0 mm
07:02 -14.2 °C -14.7 °C 34303.6 hPa WSW 5.1 km/h 15.6 km/h 94 % 0 mm
07:07 -14.2 °C -14.7 °C 34313.7 hPa SSE 5.1 km/h 15.6 km/h 94 % 0 mm
07:12 -14.3 °C -14.8 °C 34303.6 hPa South 2.6 km/h 15.6 km/h 94 % 0 mm
07:17 -14.3 °C -14.8 °C 34303.6 hPa WSW 5.1 km/h 15.6 km/h 94 % 0 mm
07:22 -14.3 °C -14.8 °C 34313.7 hPa SW 5.1 km/h 12.9 km/h 94 % 0 mm
07:27 -14.2 °C -14.7 °C 34313.7 hPa WSW 2.6 km/h 12.9 km/h 94 % 0 mm
07:32 -14.2 °C -14.7 °C 34313.7 hPa WSW 5.1 km/h 12.9 km/h 94 % 0 mm
07:42 -14.2 °C -14.7 °C 34327.3 hPa ESE 12.9 km/h 12.9 km/h 94 % 0 mm
07:47 -14.2 °C -14.7 °C 34327.3 hPa WSW 2.6 km/h 12.9 km/h 94 % 0 mm
07:52 -14.2 °C -14.7 °C 34327.3 hPa WSW 7.7 km/h 12.9 km/h 94 % 0 mm
07:57 -14.2 °C -14.7 °C 34327.3 hPa WSW 10.3 km/h 12.9 km/h 94 % 0 mm
08:02 -14.2 °C -14.7 °C 34327.3 hPa SW 5.1 km/h 20.8 km/h 94 % 0 mm
08:07 -14.2 °C -14.7 °C 34327.3 hPa SSW 7.7 km/h 20.8 km/h 94 % 0 mm
08:12 -14.2 °C -14.7 °C 34327.3 hPa Calm   20.8 km/h 94 % 0 mm
08:17 -14.3 °C -14.8 °C 34337.4 hPa SW 5.1 km/h 20.8 km/h 94 % 0 mm
08:22 -14.2 °C -14.7 °C 34337.4 hPa SW 5.1 km/h 12.9 km/h 94 % 0 mm
08:27 -14.2 °C -14.7 °C 34347.6 hPa SW 5.1 km/h 12.9 km/h 94 % 0 mm
08:32 -14.2 °C -14.7 °C 34337.4 hPa SW 5.1 km/h 10.3 km/h 94 % 0 mm
08:37 -14.1 °C -14.6 °C 34337.4 hPa SW 7.7 km/h 10.3 km/h 94 % 0 mm
08:42 -14.1 °C -14.7 °C 34337.4 hPa SW 10.3 km/h 10.3 km/h 93 % 0 mm
08:47 -14 °C -14.6 °C 34347.6 hPa South 7.7 km/h 10.3 km/h 93 % 0 mm
08:52 -13.9 °C -14.6 °C 34347.6 hPa West 2.6 km/h 20.8 km/h 92 % 0 mm
08:57 -13.9 °C -14.6 °C 34347.6 hPa WSW 7.7 km/h 20.8 km/h 92 % 0 mm
09:02 -13.9 °C -14.6 °C 34347.6 hPa SW 7.7 km/h 12.9 km/h 92 % 0 mm
09:12 -13.8 °C -14.5 °C 34347.6 hPa SW 7.7 km/h 15.6 km/h 92 % 0 mm
09:17 -13.8 °C -14.5 °C 34347.6 hPa WSW 10.3 km/h 15.6 km/h 92 % 0 mm
09:22 -13.8 °C -14.4 °C 34347.6 hPa West 10.3 km/h 15.6 km/h 92 % 0 mm
09:32 -13.8 °C -14.6 °C 34347.6 hPa WSW 7.7 km/h 18.2 km/h 91 % 0 mm
09:37 -13.7 °C -14.3 °C 34347.6 hPa South 5.1 km/h 18.2 km/h 92 % 0 mm
09:42 -13.4 °C -14.1 °C 34347.6 hPa SW 12.9 km/h 18.2 km/h 92 % 0 mm
09:47 -13.3 °C -14.3 °C 34347.6 hPa WSW 18.2 km/h 18.2 km/h 89 % 0 mm
09:52 -13.3 °C -14.3 °C 34347.6 hPa West 10.3 km/h 28.5 km/h 89 % 0 mm
09:57 -13.2 °C -14.2 °C 34347.6 hPa SW 18.2 km/h 28.5 km/h 89 % 0 mm
10:02 -13.2 °C -14.3 °C 34347.6 hPa SW 15.6 km/h 25.9 km/h 87 % 0 mm
10:12 -13.2 °C -14.1 °C 34347.6 hPa South 10.3 km/h 36.2 km/h 89 % 0 mm
10:22 -13 °C -14.1 °C 34347.6 hPa SW 10.3 km/h 28.5 km/h 88 % 0 mm
10:27 -13 °C -14.1 °C 34347.6 hPa WSW 12.9 km/h 28.5 km/h 87 % 0 mm
10:32 -13 °C -14.1 °C 34347.6 hPa SW 10.3 km/h 28.5 km/h 88 % 0 mm
10:37 -13 °C -14.1 °C 34347.6 hPa SW 12.9 km/h 23.3 km/h 88 % 0 mm
10:42 -13 °C -14.2 °C 34347.6 hPa SW 10.3 km/h 23.3 km/h 86 % 0 mm
10:47 -12.9 °C -14.1 °C 34361.1 hPa WSW 5.1 km/h 36.2 km/h 87 % 0 mm
10:52 -12.9 °C -14.1 °C 34361.1 hPa SW 20.8 km/h 36.2 km/h 87 % 0 mm
10:57 -13 °C -14.1 °C 34361.1 hPa SSW 15.6 km/h 38.8 km/h 87 % 7.62 mm
11:02 -13 °C -14.1 °C 34361.1 hPa West 7.7 km/h 38.8 km/h 87 % 7.62 mm
11:12 -12.9 °C -14.2 °C 34361.1 hPa SSW 12.9 km/h 38.8 km/h 86 % 7.62 mm
11:17 -12.9 °C -14 °C 34361.1 hPa ESE 12.9 km/h 28.5 km/h 87 % 7.62 mm
11:22 -12.8 °C -14 °C 34361.1 hPa SW 20.8 km/h 28.5 km/h 86 % 7.62 mm
11:27 -12.7 °C -13.9 °C 34361.1 hPa South 2.6 km/h 33.6 km/h 86 % 7.62 mm
11:32 -12.6 °C -13.9 °C 34361.1 hPa South 12.9 km/h 33.6 km/h 85 % 7.62 mm
11:47 -12.3 °C -13.9 °C 34361.1 hPa WSW 20.8 km/h 36.2 km/h 82 % 7.62 mm
11:52 -12.3 °C -13.9 °C 34361.1 hPa SW 15.6 km/h 36.2 km/h 82 % 7.62 mm
11:57 -12.3 °C -13.8 °C 34361.1 hPa SW 15.6 km/h 33.6 km/h 83 % 0 mm
12:02 -12.1 °C -13.7 °C 34347.6 hPa SSW 10.3 km/h 36.2 km/h 82 % 0 mm
12:12 -11.9 °C -13.7 °C 34347.6 hPa SW 25.9 km/h 36.2 km/h 81 % 0 mm
12:17 -12 °C -13.7 °C 34347.6 hPa SW 23.3 km/h 33.6 km/h 81 % 0 mm
12:22 -12.1 °C -13.9 °C 34347.6 hPa SW 25.9 km/h 36.2 km/h 80 % 0 mm
12:27 -12.1 °C -13.8 °C 34347.6 hPa SW 15.6 km/h 36.2 km/h 81 % 0 mm
12:32 -12 °C -13.6 °C 34347.6 hPa SW 20.8 km/h 41.4 km/h 82 % 0 mm
12:37 -11.8 °C -13.6 °C 34347.6 hPa WSW 15.6 km/h 41.4 km/h 81 % 0 mm
12:42 -11.6 °C -13.2 °C 34347.6 hPa SW 12.9 km/h 28.5 km/h 82 % 0 mm
12:47 -11.3 °C -13.4 °C 34347.6 hPa SW 23.3 km/h 28.5 km/h 78 % 0 mm
12:57 -11.2 °C -13.5 °C 34347.6 hPa SW 18.2 km/h 28.5 km/h 76 % 0 mm
13:02 -11.3 °C -13.5 °C 34337.4 hPa SW 12.9 km/h 33.6 km/h 77 % 0 mm
13:12 -11.4 °C -13.7 °C 34337.4 hPa WSW 20.8 km/h 33.6 km/h 76 % 0 mm
13:17 -11.2 °C -13.2 °C 34327.3 hPa SSW 18.2 km/h 33.6 km/h 78 % 0 mm
13:22 -11.3 °C -13.4 °C 34327.3 hPa SW 28.5 km/h 33.6 km/h 78 % 0 mm
13:27 -11.3 °C -13.4 °C 34337.4 hPa WSW 20.8 km/h 33.6 km/h 77 % 0 mm
13:32 -11.2 °C -13.4 °C 34327.3 hPa SW 12.9 km/h 33.6 km/h 77 % 0 mm
13:37 -11.2 °C -13.4 °C 34327.3 hPa West 10.3 km/h 31.1 km/h 76 % 0 mm
13:42 -10.8 °C -13.4 °C 34313.7 hPa SW 25.9 km/h 31.1 km/h 73 % 0 mm
13:47 -10.9 °C -13.4 °C 34327.3 hPa SW 23.3 km/h 31.1 km/h 74 % 0 mm
13:52 -10.9 °C -13.9 °C 34313.7 hPa South 18.2 km/h 33.6 km/h 70 % 0 mm
13:57 -11.1 °C -13.6 °C 34313.7 hPa SSW 20.8 km/h 36.2 km/h 74 % 0 mm
14:02 -10.9 °C -13.4 °C 34313.7 hPa SSE 10.3 km/h 36.2 km/h 74 % 0 mm
14:07 -10.9 °C -13.6 °C 34313.7 hPa SW 25.9 km/h 36.2 km/h 72 % 0 mm
14:12 -11.1 °C -13.4 °C 34313.7 hPa SW 25.9 km/h 36.2 km/h 75 % 0 mm
14:17 -11.2 °C -13.8 °C 34313.7 hPa West 20.8 km/h 33.6 km/h 73 % 0 mm
14:22 -11 °C -13.4 °C 34313.7 hPa West 18.2 km/h 33.6 km/h 75 % 0 mm
14:27 -11.2 °C -14.2 °C 34303.6 hPa SW 25.9 km/h 33.6 km/h 70 % 0 mm
14:32 -11.2 °C -13.5 °C 34313.7 hPa WSW 15.6 km/h 38.8 km/h 76 % 0 mm
14:37 -10.8 °C -13.3 °C 34303.6 hPa WSW 20.8 km/h 38.8 km/h 74 % 0 mm
14:42 -10.6 °C -12.9 °C 34303.6 hPa West 10.3 km/h 38.8 km/h 75 % 0 mm
14:47 -10.7 °C -13.7 °C 34303.6 hPa SW 18.2 km/h 36.2 km/h 69 % 0 mm
14:52 -10.7 °C -13.4 °C 34303.6 hPa SW 15.6 km/h 33.6 km/h 72 % 0 mm
14:57 -10.7 °C -13.4 °C 34303.6 hPa SW 23.3 km/h 36.2 km/h 72 % 0 mm
15:02 -10.4 °C -13.3 °C 34293.4 hPa SSW 20.8 km/h 36.2 km/h 71 % 0 mm
15:07 -10.6 °C -13.5 °C 34293.4 hPa SW 18.2 km/h 33.6 km/h 70 % 0 mm
15:17 -10.8 °C -13.8 °C 34293.4 hPa SW 12.9 km/h 38.8 km/h 70 % 0 mm
15:22 -11 °C -13.9 °C 34293.4 hPa WSW 15.6 km/h 38.8 km/h 70 % 0 mm
15:27 -10.9 °C -13.7 °C 34293.4 hPa SW 20.8 km/h 31.1 km/h 72 % 0 mm
15:32 -10.8 °C -14 °C 34279.9 hPa SSW 23.3 km/h 28.5 km/h 68 % 0 mm
15:37 -10.7 °C -14.2 °C 34293.4 hPa SE 12.9 km/h 28.5 km/h 66 % 0 mm
15:42 -10.8 °C -14.3 °C 34279.9 hPa ESE 7.7 km/h 25.9 km/h 66 % 0 mm
15:47 -11 °C -14.2 °C 34293.4 hPa SW 44.1 km/h 44.1 km/h 68 % 0 mm
15:52 -11.8 °C -13.9 °C 34303.6 hPa SSE 33.6 km/h 44.1 km/h 77 % 0 mm
15:57 -12 °C -13.7 °C 34303.6 hPa SW 23.3 km/h 51.8 km/h 81 % 0 mm
16:02 -11.7 °C -13.6 °C 34303.6 hPa SW 10.3 km/h 51.8 km/h 80 % 0 mm
16:07 -11.5 °C -13.4 °C 34303.6 hPa SSW 12.9 km/h 49.2 km/h 79 % 0 mm
16:12 -11.3 °C -13.4 °C 34303.6 hPa SW 20.8 km/h 49.2 km/h 78 % 0 mm
16:17 -11.2 °C -13.4 °C 34293.4 hPa SW 25.9 km/h 36.2 km/h 77 % 0 mm
16:22 -11.1 °C -13.1 °C 34303.6 hPa SW 20.8 km/h 31.1 km/h 78 % 0 mm
16:27 -11.1 °C -13.1 °C 34303.6 hPa West 20.8 km/h 31.1 km/h 78 % 0 mm
16:32 -11.3 °C -13.3 °C 34303.6 hPa WSW 10.3 km/h 31.1 km/h 78 % 0 mm
16:37 -11.4 °C -13.4 °C 34303.6 hPa SW 20.8 km/h 31.1 km/h 78 % 0 mm
16:42 -11.3 °C -13.7 °C 34293.4 hPa SW 25.9 km/h 31.1 km/h 75 % 0 mm
16:47 -11.1 °C -13.6 °C 34293.4 hPa WSW 25.9 km/h 36.2 km/h 74 % 0 mm
16:52 -11.1 °C -13.6 °C 34293.4 hPa South 18.2 km/h 36.2 km/h 74 % 0 mm
16:57 -11.1 °C -13.8 °C 34293.4 hPa WSW 10.3 km/h 36.2 km/h 72 % 0 mm
17:02 -11.2 °C -13.9 °C 34293.4 hPa SW 18.2 km/h 33.6 km/h 72 % 0 mm
17:12 -11.2 °C -14.2 °C 34293.4 hPa WSW 12.9 km/h 36.2 km/h 70 % 0 mm
17:17 -11.2 °C -14.1 °C 34293.4 hPa SW 12.9 km/h 36.2 km/h 71 % 0 mm
17:22 -11.3 °C -13.7 °C 34293.4 hPa NNW 12.9 km/h 36.2 km/h 75 % 0 mm
17:32 -11.3 °C -13.8 °C 34293.4 hPa South 18.2 km/h 33.6 km/h 74 % 0 mm
17:37 -11.3 °C -13.9 °C 34279.9 hPa WSW 12.9 km/h 33.6 km/h 73 % 0 mm
17:42 -11.3 °C -13.8 °C 34279.9 hPa WSW 7.7 km/h 33.6 km/h 74 % 0 mm
17:47 -11.2 °C -13.7 °C 34279.9 hPa SSE 2.6 km/h 31.1 km/h 74 % 0 mm
17:52 -11.2 °C -13.8 °C 34279.9 hPa SW 5.1 km/h 20.8 km/h 73 % 0 mm
17:57 -11.2 °C -13.8 °C 34279.9 hPa SW 10.3 km/h 20.8 km/h 73 % 0 mm
18:02 -11.2 °C -13.8 °C 34269.7 hPa SW 12.9 km/h 15.6 km/h 73 % 0 mm
18:12 -11.7 °C -14 °C 34279.9 hPa SW 18.2 km/h 23.3 km/h 76 % 0 mm
18:17 -11.7 °C -13.8 °C 34279.9 hPa SW 18.2 km/h 25.9 km/h 78 % 0 mm
18:22 -11.4 °C -13.7 °C 34279.9 hPa WSW 10.3 km/h 25.9 km/h 76 % 0 mm
18:32 -11.6 °C -13.6 °C 34269.7 hPa SW 12.9 km/h 33.6 km/h 78 % 0 mm
18:37 -11.6 °C -13.8 °C 34269.7 hPa SSW 12.9 km/h 33.6 km/h 77 % 0 mm
18:42 -11.6 °C -13.6 °C 34269.7 hPa SW 7.7 km/h 33.6 km/h 79 % 0 mm
18:47 -11.7 °C -13.6 °C 34256.2 hPa SW 15.6 km/h 33.6 km/h 79 % 0 mm
18:57 -11.8 °C -13.5 °C 34256.2 hPa West 5.1 km/h 23.3 km/h 81 % 0 mm
19:02 -11.9 °C -13.8 °C 34256.2 hPa SW 5.1 km/h 23.3 km/h 80 % 0 mm
19:12 -12.1 °C -14 °C 34256.2 hPa SW 10.3 km/h 18.2 km/h 79 % 0 mm
19:17 -12.1 °C -14.1 °C 34256.2 hPa SW 12.9 km/h 20.8 km/h 79 % 0 mm
19:22 -12.2 °C -14.1 °C 34256.2 hPa WSW 15.6 km/h 20.8 km/h 79 % 0 mm
19:27 -12.2 °C -14.1 °C 34256.2 hPa SW 10.3 km/h 20.8 km/h 79 % 0 mm
19:32 -12.3 °C -14.1 °C 34256.2 hPa SSW 2.6 km/h 20.8 km/h 80 % 0 mm
19:37 -12.4 °C -14.2 °C 34256.2 hPa SW 2.6 km/h 25.9 km/h 81 % 0 mm
19:42 -12.6 °C -14.2 °C 34256.2 hPa SSW 7.7 km/h 25.9 km/h 82 % 0 mm
19:47 -12.4 °C -13.9 °C 34256.2 hPa WSW 5.1 km/h 25.9 km/h 84 % 0 mm
19:52 -12.6 °C -14.1 °C 34246 hPa SW 10.3 km/h 18.2 km/h 84 % 0 mm
20:02 -12.9 °C -14.3 °C 34256.2 hPa WSW 5.1 km/h 18.2 km/h 84 % 0 mm
20:12 -13.2 °C -14.4 °C 34246 hPa SW 2.6 km/h 15.6 km/h 86 % 0 mm
20:17 -13.3 °C -14.4 °C 34246 hPa Calm   15.6 km/h 87 % 0 mm
20:22 -13.4 °C -14.5 °C 34246 hPa SSW 2.6 km/h 12.9 km/h 88 % 0 mm
20:27 -13.6 °C -14.5 °C 34246 hPa SW 5.1 km/h 7.7 km/h 89 % 0 mm
20:32 -13.5 °C -14.4 °C 34246 hPa SW 2.6 km/h 5.1 km/h 89 % 0 mm
20:37 -13.6 °C -14.5 °C 34246 hPa Calm   7.7 km/h 89 % 0 mm
20:42 -13.6 °C -14.6 °C 34246 hPa SW 5.1 km/h 7.7 km/h 89 % 0 mm
20:47 -13.7 °C -14.5 °C 34246 hPa ESE 2.6 km/h 7.7 km/h 90 % 0 mm
20:52 -13.7 °C -14.6 °C 34246 hPa WSW 2.6 km/h 5.1 km/h 89 % 0 mm
20:57 -13.7 °C -14.6 °C 34246 hPa Calm   7.7 km/h 89 % 0 mm
21:02 -13.7 °C -14.7 °C 34235.8 hPa WSW 5.1 km/h 7.7 km/h 89 % 0 mm
21:07 -13.7 °C -14.6 °C 34246 hPa WSW 5.1 km/h 7.7 km/h 89 % 0 mm
21:12 -13.6 °C -14.6 °C 34235.8 hPa WSW 2.6 km/h 10.3 km/h 89 % 0 mm
21:17 -13.6 °C -14.7 °C 34246 hPa SSW 2.6 km/h 10.3 km/h 88 % 0 mm
21:22 -13.7 °C -14.6 °C 34246 hPa Calm   10.3 km/h 89 % 0 mm
21:27 -13.7 °C -14.7 °C 34246 hPa SW 2.6 km/h 10.3 km/h 89 % 0 mm
21:32 -13.6 °C -14.6 °C 34235.8 hPa South 7.7 km/h 10.3 km/h 89 % 0 mm
21:37 -13.6 °C -14.6 °C 34235.8 hPa WSW 7.7 km/h 15.6 km/h 88 % 0 mm
21:42 -13.5 °C -14.6 °C 34235.8 hPa SW 12.9 km/h 15.6 km/h 88 % 0 mm
21:47 -13.6 °C -14.7 °C 34235.8 hPa SW 10.3 km/h 15.6 km/h 87 % 0 mm
21:52 -13.6 °C -14.7 °C 34235.8 hPa SW 5.1 km/h 12.9 km/h 88 % 0 mm
21:57 -13.7 °C -14.8 °C 34235.8 hPa Calm   12.9 km/h 88 % 0 mm
22:02 -13.8 °C -14.8 °C 34235.8 hPa WSW 7.7 km/h 12.9 km/h 88 % 0 mm
22:12 -13.7 °C -14.8 °C 34235.8 hPa SW 10.3 km/h 12.9 km/h 88 % 0 mm
22:17 -13.8 °C -14.8 °C 34235.8 hPa WSW 5.1 km/h 15.6 km/h 88 % 0 mm
22:22 -13.8 °C -14.8 °C 34235.8 hPa SW 2.6 km/h 15.6 km/h 88 % 0 mm
22:27 -13.8 °C -14.9 °C 34235.8 hPa SSW 2.6 km/h 15.6 km/h 88 % 0 mm
22:32 -13.9 °C -14.9 °C 34235.8 hPa WSW 7.7 km/h 10.3 km/h 88 % 0 mm
22:37 -13.9 °C -14.9 °C 34222.3 hPa WSW 5.1 km/h 10.3 km/h 89 % 0 mm
22:42 -13.9 °C -14.9 °C 34222.3 hPa SW 5.1 km/h 10.3 km/h 89 % 0 mm
22:47 -13.9 °C -14.9 °C 34222.3 hPa SW 7.7 km/h 10.3 km/h 89 % 0 mm
22:52 -14 °C -14.9 °C 34222.3 hPa WSW 7.7 km/h 10.3 km/h 89 % 0 mm
22:57 -14 °C -14.9 °C 34222.3 hPa SW 7.7 km/h 12.9 km/h 89 % 0 mm
23:02 -14.1 °C -15 °C 34222.3 hPa SW 2.6 km/h 12.9 km/h 89 % 0 mm
23:12 -14.1 °C -15 °C 34212.1 hPa WSW 5.1 km/h 10.3 km/h 89 % 0 mm
23:17 -14.1 °C -14.9 °C 34212.1 hPa SW 7.7 km/h 12.9 km/h 90 % 0 mm
23:22 -14.1 °C -14.9 °C 34198.6 hPa WSW 7.7 km/h 12.9 km/h 90 % 0 mm
23:27 -14.1 °C -14.9 °C 34198.6 hPa SW 10.3 km/h 12.9 km/h 90 % 0 mm
23:32 -14.1 °C -14.9 °C 34198.6 hPa SW 5.1 km/h 10.3 km/h 90 % 0 mm
23:37 -13.9 °C -14.9 °C 34198.6 hPa SSE 10.3 km/h 12.9 km/h 89 % 0 mm
23:42 -13.9 °C -14.8 °C 34188.4 hPa SW 7.7 km/h 15.6 km/h 89 % 0 mm
23:47 -13.9 °C -14.8 °C 34188.4 hPa WSW 2.6 km/h 15.6 km/h 89 % 0 mm
23:52 -13.9 °C -14.9 °C 34188.4 hPa SW 2.6 km/h 15.6 km/h 89 % 0 mm
23:57 -13.9 °C -14.8 °C 34188.4 hPa SW 12.9 km/h 15.6 km/h 89 % 0 mm
Meteo18
Compliments of Weather Underground - 4 mb

Script developed by  Jim McMurry - jmcmurry@mwt.net Adapted for the template by  Wim van der Kuil - Leuven-Template.eu

You find our weather info also at:

European Weather Network

Weather Underground

Equipment we use:

Weather-station
Davis Vue

Weather-program
Meteobridge

Weather-server
Raspberry PI 2 B+

Provider
1 and 1

Davis Vue

Meteobridge

Raspberry PI 2 B+

1 and 1